Time;durP1;ratioP1;P1;durP2;ratioP2;P2;SDS_P1;SDS_P2;PMS_P1;PMS_P2;Temp;Humidity;BMP_temperature;BMP_pressure;BME280_temperature;BME280_humidity;BME280_pressure;Samples;Min_cycle;Max_cycle;Signal;HPM_P1;HPM_P2
2022/04/27 00:02:14;;;;;;;;;12.00;9.25;;;;;13.19;43.48;101722.50;5019878;28;45883;-69
2022/04/27 00:04:40;;;;;;;;;9.50;9.50;;;;;13.31;43.50;101741.94;5020201;28;45474;-70
2022/04/27 00:07:07;;;;;;;;;8.75;8.00;;;;;13.33;43.71;101734.03;5020663;28;45358;-70
2022/04/27 00:09:37;;;;;;;;;9.25;9.25;;;;;13.38;43.84;101745.44;5021322;28;45480;-69
2022/04/27 00:12:03;;;;;;;;;15.25;12.25;;;;;13.38;43.61;101748.09;5019387;28;46123;-70
2022/04/27 00:14:31;;;;;;;;;15.50;11.75;;;;;13.27;43.45;101732.25;5020285;28;45395;-69
2022/04/27 00:16:59;;;;;;;;;15.75;11.25;;;;;13.22;43.47;101736.56;5018396;28;45537;-69
2022/04/27 00:19:27;;;;;;;;;12.25;12.25;;;;;13.07;43.54;101716.25;5019015;28;46364;-69
2022/04/27 00:21:54;;;;;;;;;10.75;10.25;;;;;13.29;43.66;101743.66;5034327;28;47035;-70
2022/04/27 00:24:19;;;;;;;;;14.25;11.00;;;;;13.32;43.73;101750.69;5019644;28;45664;-70
2022/04/27 00:26:45;;;;;;;;;15.50;14.25;;;;;13.18;43.80;101745.28;5018788;28;45568;-69
2022/04/27 00:29:11;;;;;;;;;17.75;13.75;;;;;13.06;43.80;101743.44;5019555;28;45535;-70
2022/04/27 00:31:37;;;;;;;;;16.50;15.00;;;;;12.99;43.98;101746.91;5018944;28;45858;-68
2022/04/27 00:34:03;;;;;;;;;11.00;11.00;;;;;12.96;44.50;101746.88;5018675;28;45370;-68
2022/04/27 00:36:31;;;;;;;;;10.75;9.00;;;;;12.89;44.04;101735.44;5018991;28;45428;-68
2022/04/27 00:38:57;;;;;;;;;11.50;11.50;;;;;13.04;44.50;101747.81;5018049;28;45431;-69
2022/04/27 00:41:23;;;;;;;;;16.50;12.50;;;;;13.03;43.89;101753.06;5018575;28;45712;-70
2022/04/27 00:43:48;;;;;;;;;12.50;11.75;;;;;12.90;44.33;101738.94;5019067;28;45429;-70
2022/04/27 00:46:14;;;;;;;;;12.25;10.50;;;;;13.02;44.18;101752.16;5018563;28;45421;-70
2022/04/27 00:48:40;;;;;;;;;10.75;9.75;;;;;13.00;44.14;101732.88;5018814;28;45367;-71
2022/04/27 00:51:07;;;;;;;;;11.25;10.25;;;;;13.13;44.12;101744.38;5018668;28;45370;-69
2022/04/27 00:53:34;;;;;;;;;9.00;9.00;;;;;13.07;44.35;101724.16;5018534;28;46024;-72
2022/04/27 00:56:01;;;;;;;;;9.50;9.50;;;;;13.24;43.98;101741.81;5050362;28;45321;-70
2022/04/27 00:58:28;;;;;;;;;11.50;10.50;;;;;13.24;43.68;101736.56;5018675;28;45269;-70
2022/04/27 01:00:54;;;;;;;;;9.25;9.25;;;;;13.24;44.00;101733.91;5018192;28;46877;-70
2022/04/27 01:03:21;;;;;;;;;10.50;10.50;;;;;13.17;43.29;101714.63;5017928;28;45604;-70
2022/04/27 01:05:48;;;;;;;;;10.75;10.75;;;;;13.32;43.95;101742.81;5018379;28;45454;-71
2022/04/27 01:08:17;;;;;;;;;10.00;10.00;;;;;13.21;44.11;101721.63;5018858;28;45382;-70
2022/04/27 01:10:46;;;;;;;;;12.50;12.25;;;;;13.14;43.74;101722.47;5018585;28;45480;-70
2022/04/27 01:13:12;;;;;;;;;14.00;13.25;;;;;13.20;43.65;101732.16;5018080;28;45260;-70
2022/04/27 01:15:43;;;;;;;;;11.25;10.75;;;;;13.14;43.96;101723.38;5018468;28;45342;-69
2022/04/27 01:18:09;;;;;;;;;18.75;15.25;;;;;12.98;44.30;101716.22;5018677;28;45568;-70
2022/04/27 01:20:47;;;;;;;;;12.00;11.50;;;;;13.05;44.34;101736.44;5017872;28;46500;-69
2022/04/27 01:23:14;;;;;;;;;13.00;11.50;;;;;13.07;44.10;101734.69;5018164;28;45319;-68
2022/04/27 01:25:54;;;;;;;;;15.25;13.50;;;;;13.05;44.22;101727.66;5017834;28;45705;-69
2022/04/27 01:28:24;;;;;;;;;11.25;10.25;;;;;13.05;43.86;101728.56;5018016;28;45507;-69
2022/04/27 01:31:19;;;;;;;;;12.25;12.00;;;;;13.07;44.26;101726.78;5017654;28;46480;-69
2022/04/27 01:33:44;;;;;;;;;14.00;9.25;;;;;12.99;43.90;101701.31;5021257;28;45223;-70
2022/04/27 01:36:13;;;;;;;;;15.25;12.75;;;;;13.15;44.10;101737.38;5017876;28;45772;-70
2022/04/27 01:38:41;;;;;;;;;12.50;11.00;;;;;13.04;44.17;101713.63;5016902;28;45362;-71
2022/04/27 01:41:08;;;;;;;;;15.25;12.25;;;;;13.07;44.08;101728.53;5016818;28;46490;-69
2022/04/27 01:43:34;;;;;;;;;12.00;11.50;;;;;12.87;44.22;101702.97;5018004;28;45448;-69
2022/04/27 01:46:00;;;;;;;;;15.00;12.50;;;;;13.09;44.16;101726.81;5017546;28;45477;-70
2022/04/27 01:48:27;;;;;;;;;10.75;10.25;;;;;12.86;43.84;101688.09;5018195;28;45304;-69
2022/04/27 01:50:56;;;;;;;;;13.25;10.25;;;;;12.93;44.17;101689.91;5016596;28;46271;-69
2022/04/27 01:56:08;;;;;;;;;13.75;13.75;;;;;13.24;43.73;101740.09;5017981;28;45432;-69
2022/04/27 01:58:34;;;;;;;;;11.50;9.75;;;;;13.22;43.70;101739.19;5017874;28;45458;-68
2022/04/27 02:01:00;;;;;;;;;12.00;10.75;;;;;12.93;44.04;101699.50;5017625;28;46490;-68
2022/04/27 02:03:26;;;;;;;;;10.75;10.25;;;;;13.18;44.09;101733.91;5018061;28;45484;-69
2022/04/27 02:05:55;;;;;;;;;16.00;13.25;;;;;13.21;44.02;101744.44;5017486;28;45516;-68
2022/04/27 02:08:20;;;;;;;;;17.25;13.50;;;;;12.85;44.24;101690.69;5017548;28;45628;-69
2022/04/27 02:10:46;;;;;;;;;14.00;13.75;;;;;13.12;44.17;101753.13;5017447;28;45327;-69
2022/04/27 02:13:13;;;;;;;;;15.50;15.00;;;;;13.05;44.29;101752.22;5017224;28;45316;-68
2022/04/27 02:15:39;;;;;;;;;17.25;16.25;;;;;13.05;44.58;101746.06;5032802;28;45206;-69
2022/04/27 02:18:06;;;;;;;;;16.25;13.75;;;;;12.96;44.18;101743.38;5017572;28;45449;-69
2022/04/27 02:20:32;;;;;;;;;16.00;14.75;;;;;12.87;44.39;101724.00;5015948;28;47188;-68
2022/04/27 02:22:58;;;;;;;;;21.50;18.50;;;;;12.79;44.01;101722.19;5032698;28;45910;-70
2022/04/27 02:25:24;;;;;;;;;20.00;15.50;;;;;12.75;44.78;101747.56;5017895;28;45429;-68
2022/04/27 02:27:49;;;;;;;;;21.00;18.75;;;;;12.48;45.36;101721.88;5017617;28;45363;-69
2022/04/27 02:30:17;;;;;;;;;17.00;17.00;;;;;12.52;45.31;101742.97;5017159;28;45536;-70
2022/04/27 02:32:45;;;;;;;;;19.50;16.25;;;;;12.51;45.18;101737.72;5017114;28;45466;-70
2022/04/27 02:35:11;;;;;;;;;18.50;18.50;;;;;12.41;45.66;101727.94;5017150;28;45266;-70
2022/04/27 02:37:37;;;;;;;;;16.75;16.00;;;;;12.39;45.89;101729.72;5017345;28;45475;-69
2022/04/27 02:40:04;;;;;;;;;16.50;15.00;;;;;12.49;45.77;101745.56;5016913;28;46449;-70
2022/04/27 02:42:30;;;;;;;;;17.75;17.00;;;;;12.56;45.61;101741.25;5017141;28;45429;-69
2022/04/27 02:44:56;;;;;;;;;18.00;14.75;;;;;12.56;45.63;101743.88;5017225;28;45481;-70
2022/04/27 02:47:22;;;;;;;;;16.00;15.00;;;;;12.52;45.70;101742.97;5017077;28;45382;-70
2022/04/27 02:52:32;;;;;;;;;17.25;14.75;;;;;12.55;45.62;101738.59;5004065;28;45534;-69
2022/04/27 02:54:58;;;;;;;;;20.25;15.50;;;;;12.56;45.86;101732.50;5017187;28;45291;-68
2022/04/27 02:57:24;;;;;;;;;13.75;12.25;;;;;12.65;45.53;101741.34;5015854;28;45360;-69
2022/04/27 02:59:50;;;;;;;;;15.75;11.00;;;;;12.58;45.64;101715.00;5017471;28;45461;-69
2022/04/27 03:02:15;;;;;;;;;13.50;11.25;;;;;12.72;45.46;101734.41;5017333;28;45389;-70
2022/04/27 03:04:47;;;;;;;;;16.00;14.00;;;;;12.64;45.54;101715.03;5016928;28;45429;-69
2022/04/27 03:07:13;;;;;;;;;18.25;12.25;;;;;12.76;45.72;101730.91;5015981;28;45426;-69
2022/04/27 03:09:38;;;;;;;;;14.50;14.00;;;;;12.82;45.82;101740.63;5048368;28;48030;-69
2022/04/27 03:12:04;;;;;;;;;13.75;13.00;;;;;12.85;45.74;101735.38;5016575;28;45449;-69
2022/04/27 03:14:31;;;;;;;;;19.00;16.50;;;;;12.77;45.34;101718.69;5017077;28;45430;-69
2022/04/27 03:16:57;;;;;;;;;19.50;16.25;;;;;12.83;45.34;101723.97;5017139;28;45455;-70
2022/04/27 03:19:24;;;;;;;;;17.75;13.00;;;;;12.81;45.21;101709.94;5016313;28;46140;-70
2022/04/27 03:21:50;;;;;;;;;18.25;15.75;;;;;12.82;45.39;101716.97;5016211;28;45524;-70
2022/04/27 03:24:16;;;;;;;;;15.00;15.00;;;;;12.84;45.35;101721.38;5016531;28;45457;-70
2022/04/27 03:26:42;;;;;;;;;16.50;13.50;;;;;12.83;45.63;101721.34;5016519;28;45445;-70
2022/04/27 03:29:07;;;;;;;;;17.50;16.00;;;;;12.88;45.48;101736.31;5016129;28;45425;-69
2022/04/27 03:31:34;;;;;;;;;18.75;14.25;;;;;12.72;45.52;101698.47;5016397;28;45552;-70
2022/04/27 03:33:59;;;;;;;;;21.50;15.25;;;;;12.89;45.58;101727.53;5015437;28;45526;-70
2022/04/27 03:36:25;;;;;;;;;16.50;15.50;;;;;12.90;45.28;101731.03;5016155;28;45315;-69
2022/04/27 03:38:51;;;;;;;;;16.00;15.25;;;;;12.91;45.34;101728.44;5015959;28;45311;-68
2022/04/27 03:41:34;;;;;;;;;;;;;;;;;;;;;
2022/04/27 03:44:04;;;;;;;;;15.50;12.00;;;;;12.25;46.48;101649.00;5017212;28;69183;-69
2022/04/27 03:46:31;;;;;;;;;18.75;16.00;;;;;12.70;46.12;101720.38;5017286;28;45611;-69
2022/04/27 03:48:56;;;;;;;;;23.00;17.25;;;;;12.70;45.84;101723.00;5015997;28;46000;-68
2022/04/27 03:51:34;;;;;;;;;18.00;16.25;;;;;12.68;46.19;101724.72;5015987;28;45400;-69
2022/04/27 03:54:24;;;;;;;;;24.75;18.25;;;;;12.54;46.26;101698.31;5015966;28;45321;-69
2022/04/27 03:56:55;;;;;;;;;20.25;16.25;;;;;12.58;47.46;101726.38;5014688;28;45267;-69
2022/04/27 03:59:39;;;;;;;;;23.75;16.00;;;;;12.59;46.63;101727.25;5016329;28;45453;-68
2022/04/27 04:02:15;;;;;;;;;19.75;16.50;;;;;12.58;46.81;101726.38;5017546;28;45483;-69
2022/04/27 04:05:01;;;;;;;;;16.50;14.50;;;;;12.28;46.28;101672.66;5016382;28;45236;-69
2022/04/27 04:07:27;;;;;;;;;21.50;17.25;;;;;12.64;46.65;101729.06;5048391;28;45533;-69
2022/04/27 04:09:52;;;;;;;;;14.25;12.50;;;;;12.62;46.62;101725.53;5015875;28;45421;-70
2022/04/27 04:12:18;;;;;;;;;21.50;16.25;;;;;12.61;46.69;101729.03;5015662;28;45388;-70
2022/04/27 04:14:44;;;;;;;;;20.75;18.50;;;;;12.45;46.77;101711.34;5049274;28;45464;-69
2022/04/27 04:17:10;;;;;;;;;24.00;20.25;;;;;12.56;46.47;101741.25;5020781;28;45792;-68
2022/04/27 04:19:39;;;;;;;;;18.75;17.50;;;;;12.54;46.85;101740.34;5019940;28;45535;-71
2022/04/27 04:22:06;;;;;;;;;24.00;22.25;;;;;12.44;47.12;101728.00;5021359;28;45407;-69
2022/04/27 04:28:29;;;;;;;;;24.00;21.75;;;;;12.36;47.25;101733.16;5021859;28;45189;-70
2022/04/27 04:30:14;;;;;;;;;20.00;19.75;;;;;12.39;47.36;101737.59;5021891;28;45324;-68
2022/04/27 04:32:57;;;;;;;;;17.25;16.50;;;;;12.18;47.46;101711.97;5021594;28;45559;-68
2022/04/27 04:35:24;;;;;;;;;27.00;19.50;;;;;12.36;47.64;101740.16;5020151;28;45354;-69
2022/04/27 04:37:50;;;;;;;;;21.25;19.25;;;;;12.27;47.46;101731.31;5021990;28;45385;-69
2022/04/27 04:40:16;;;;;;;;;22.00;20.50;;;;;12.34;47.40;101748.03;5022055;28;46030;-69
2022/04/27 04:43:06;;;;;;;;;27.00;20.75;;;;;12.35;47.73;101754.19;5021941;28;45460;-69
2022/04/27 04:45:38;;;;;;;;;31.00;25.50;;;;;12.30;47.52;101755.00;5022015;28;45326;-70
2022/04/27 04:48:04;;;;;;;;;26.00;22.50;;;;;12.16;48.08;101751.34;5020677;28;45524;-70
2022/04/27 04:50:30;;;;;;;;;19.50;15.50;;;;;12.13;47.92;101745.19;5018844;28;45497;-68
2022/04/27 04:52:57;;;;;;;;;25.75;22.25;;;;;12.07;48.29;101740.72;5018482;28;45516;-69
2022/04/27 04:55:29;;;;;;;;;29.00;23.75;;;;;12.08;48.46;101748.63;5018931;28;45494;-69
2022/04/27 04:57:55;;;;;;;;;24.75;23.75;;;;;12.02;48.12;101747.66;5019046;28;45485;-68
2022/04/27 05:00:21;;;;;;;;;21.75;19.75;;;;;12.06;48.27;101747.72;5018397;28;46465;-70
2022/04/27 05:02:46;;;;;;;;;25.00;23.75;;;;;12.04;48.33;101753.81;5018726;28;45480;-69
2022/04/27 05:05:12;;;;;;;;;26.25;22.00;;;;;12.16;48.08;101767.09;5019018;28;45722;-69
2022/04/27 05:07:38;;;;;;;;;28.50;22.25;;;;;12.18;48.18;101775.88;5018936;28;45473;-69
2022/04/27 05:10:05;;;;;;;;;29.25;24.25;;;;;12.00;48.07;101736.25;5018666;28;46270;-69
2022/04/27 05:12:31;;;;;;;;;26.00;22.50;;;;;12.14;48.37;101762.69;5018161;28;45481;-69
2022/04/27 05:14:57;;;;;;;;;27.75;23.00;;;;;12.18;47.69;101757.50;5018383;28;45519;-69
2022/04/27 05:17:24;;;;;;;;;23.25;19.25;;;;;12.25;48.08;101769.81;5018272;28;45401;-68
2022/04/27 05:19:52;;;;;;;;;23.25;19.25;;;;;12.18;48.18;101760.13;5018106;28;45486;-69
2022/04/27 05:22:18;;;;;;;;;22.75;22.25;;;;;12.24;48.07;101775.06;5018217;28;45403;-68
2022/04/27 05:24:43;;;;;;;;;36.25;30.25;;;;;12.11;48.61;101783.66;5050092;28;45444;-69
2022/04/27 05:27:09;;;;;;;;;25.25;23.25;;;;;12.00;48.66;101783.50;5018231;28;45414;-70
2022/04/27 05:32:19;;;;;;;;;30.25;22.50;;;;;11.95;48.76;101788.72;5017987;28;45452;-69
2022/04/27 05:34:45;;;;;;;;;30.25;23.25;;;;;11.78;49.09;101766.56;5017817;28;45480;-68
2022/04/27 05:37:12;;;;;;;;;38.00;29.00;;;;;11.78;49.37;101796.31;5050177;28;45453;-70
2022/04/27 05:39:38;;;;;;;;;24.75;22.75;;;;;11.75;49.39;101793.66;5018409;28;46207;-70
2022/04/27 05:42:04;;;;;;;;;25.00;20.75;;;;;11.85;49.28;101790.28;5017965;28;45527;-69
2022/04/27 05:44:31;;;;;;;;;25.75;23.25;;;;;11.87;49.19;101778.13;5016719;28;45333;-70
2022/04/27 05:46:57;;;;;;;;;27.00;25.50;;;;;12.06;48.85;101788.84;5017961;28;45329;-68
2022/04/27 05:49:23;;;;;;;;;30.00;26.50;;;;;12.07;48.80;101801.97;5017608;28;46205;-69
2022/04/27 05:51:50;;;;;;;;;21.00;18.50;;;;;12.11;48.94;101800.28;5016414;28;45351;-69
2022/04/27 05:54:16;;;;;;;;;29.50;27.00;;;;;12.19;48.71;101803.88;5017832;28;45454;-69
2022/04/27 05:56:43;;;;;;;;;22.75;20.00;;;;;12.28;48.41;101809.25;5017745;28;45338;-69
2022/04/27 05:59:09;;;;;;;;;39.25;32.25;;;;;12.19;48.97;101817.03;5016228;28;46630;-70
2022/04/27 06:01:35;;;;;;;;;29.00;26.25;;;;;12.13;48.91;101818.72;5017628;28;45256;-70
2022/04/27 06:04:01;;;;;;;;;28.00;25.25;;;;;12.13;48.94;101829.22;5017531;28;45556;-70
2022/04/27 06:06:27;;;;;;;;;25.25;23.50;;;;;12.19;49.26;101822.28;5017759;28;45441;-69
2022/04/27 06:08:53;;;;;;;;;27.00;23.50;;;;;12.30;48.46;101831.19;5016091;28;46060;-69
2022/04/27 06:11:22;;;;;;;;;30.25;24.25;;;;;12.36;48.64;101814.59;5017858;28;45231;-69
2022/04/27 06:13:48;;;;;;;;;31.75;27.50;;;;;12.50;48.89;101826.19;5018027;28;46073;-70
2022/04/27 06:16:14;;;;;;;;;32.50;24.25;;;;;12.63;48.52;101834.19;5017635;28;45423;-69
2022/04/27 06:18:41;;;;;;;;;24.00;17.50;;;;;12.74;48.35;101837.78;5016532;28;46744;-70
2022/04/27 06:21:11;;;;;;;;;30.00;23.25;;;;;12.80;48.16;101830.00;5016543;28;45478;-68
2022/04/27 06:23:38;;;;;;;;;28.50;24.75;;;;;12.91;48.24;101832.75;5016245;28;45505;-70
2022/04/27 06:26:05;;;;;;;;;27.25;21.75;;;;;13.00;47.97;101838.06;5008464;28;45396;-69
2022/04/27 06:28:34;;;;;;;;;23.75;22.50;;;;;13.10;47.17;101837.31;5029005;28;45606;-69
2022/04/27 06:31:00;;;;;;;;;35.25;30.00;;;;;13.08;46.88;101836.41;4999647;28;45339;-70
2022/04/27 06:33:26;;;;;;;;;35.00;30.25;;;;;12.92;47.62;101843.25;5017000;28;45473;-69
2022/04/27 06:35:53;;;;;;;;;41.25;32.75;;;;;12.78;47.65;101849.25;5017387;28;45688;-69
2022/04/27 06:38:19;;;;;;;;;43.00;35.75;;;;;12.54;47.90;101852.47;5016236;28;45372;-68
2022/04/27 06:40:44;;;;;;;;;41.25;34.50;;;;;12.18;48.42;101825.78;5016926;28;45780;-68
2022/04/27 06:43:10;;;;;;;;;41.75;33.50;;;;;12.24;48.74;101857.38;5017239;28;45392;-69
2022/04/27 06:45:36;;;;;;;;;41.25;33.25;;;;;12.14;48.91;101862.47;5017001;28;45718;-69
2022/04/27 06:48:07;;;;;;;;;39.25;33.25;;;;;12.07;49.39;101864.13;5016534;28;45645;-70
2022/04/27 06:50:33;;;;;;;;;27.00;23.00;;;;;12.05;49.70;101871.09;5015549;28;45409;-68
2022/04/27 06:52:59;;;;;;;;;33.25;27.75;;;;;12.08;49.73;101864.16;5017201;28;45546;-69
2022/04/27 06:55:26;;;;;;;;;40.50;34.75;;;;;11.91;49.09;101836.78;5017074;28;45303;-68
2022/04/27 06:57:52;;;;;;;;;44.25;34.50;;;;;12.10;49.38;101869.41;5015398;28;46215;-69
2022/04/27 07:00:18;;;;;;;;;37.00;33.25;;;;;12.15;49.57;101853.72;5017569;28;45453;-69
2022/04/27 07:02:44;;;;;;;;;42.50;34.50;;;;;12.12;49.84;101848.44;5018499;28;45383;-68
2022/04/27 07:05:16;;;;;;;;;35.50;31.50;;;;;12.20;49.71;101879.22;5017850;28;45455;-69
2022/04/27 07:07:43;;;;;;;;;34.50;32.75;;;;;12.15;49.47;101872.09;5017317;28;45455;-68
2022/04/27 07:10:10;;;;;;;;;43.75;32.50;;;;;12.19;49.48;101853.78;5017629;28;45641;-69
2022/04/27 07:12:36;;;;;;;;;42.75;35.25;;;;;12.38;51.58;101886.44;5017397;28;45314;-70
2022/04/27 07:15:02;;;;;;;;;47.25;36.00;;;;;12.38;49.38;101875.06;5017856;28;45378;-70
2022/04/27 07:17:28;;;;;;;;;28.75;26.00;;;;;12.51;49.05;101884.88;5017054;28;45485;-69
2022/04/27 07:19:54;;;;;;;;;43.00;34.75;;;;;12.60;49.18;101882.34;5017055;28;45354;-69
2022/04/27 07:22:19;;;;;;;;;37.00;31.75;;;;;12.60;49.14;101871.84;5017862;28;45472;-69
2022/04/27 07:24:45;;;;;;;;;39.25;32.50;;;;;12.80;48.64;101865.91;5016936;28;45581;-69
2022/04/27 07:27:11;;;;;;;;;27.50;24.50;;;;;13.06;49.01;101874.97;5016681;28;46619;-69
2022/04/27 07:29:37;;;;;;;;;24.50;21.50;;;;;13.31;48.52;101880.47;5016424;28;45509;-68
2022/04/27 07:32:03;;;;;;;;;27.75;24.25;;;;;13.44;47.84;101884.97;5016373;28;45441;-70
2022/04/27 07:34:30;;;;;;;;;37.50;30.75;;;;;13.44;47.49;101853.41;5016345;28;45446;-70
2022/04/27 07:36:57;;;;;;;;;46.75;36.00;;;;;13.51;47.38;101888.56;5015654;28;45533;-71
2022/04/27 07:39:24;;;;;;;;;34.75;32.50;;;;;13.56;47.49;101886.84;5016743;28;45533;-70
2022/04/27 07:41:50;;;;;;;;;33.50;30.50;;;;;13.58;47.13;101864.91;5016259;28;45173;-70
2022/04/27 07:44:16;;;;;;;;;33.75;30.50;;;;;13.67;46.77;101865.88;5016695;28;45336;-70
2022/04/27 07:46:48;;;;;;;;;36.50;30.25;;;;;13.80;46.98;101865.06;5014927;28;46722;-70
2022/04/27 07:49:15;;;;;;;;;45.75;36.00;;;;;13.95;46.58;101896.78;5048221;28;45409;-71
2022/04/27 07:51:41;;;;;;;;;41.75;34.75;;;;;13.76;46.54;101886.97;5018674;28;45347;-70
2022/04/27 07:54:07;;;;;;;;;40.75;33.50;;;;;13.72;46.98;101894.00;5019224;28;45437;-69
2022/04/27 07:56:35;;;;;;;;;47.25;35.75;;;;;13.45;47.09;101852.53;5019388;28;46181;-70
2022/04/27 07:59:00;;;;;;;;;29.75;26.50;;;;;13.73;47.04;101894.88;5018926;28;45421;-70
2022/04/27 08:01:26;;;;;;;;;35.00;26.00;;;;;13.86;46.95;101890.59;5018970;28;45468;-69
2022/04/27 08:03:52;;;;;;;;;32.00;27.75;;;;;13.99;46.87;101881.88;5019792;28;45502;-68
2022/04/27 08:06:18;;;;;;;;;40.75;35.00;;;;;13.96;47.22;101874.84;5019648;28;45415;-70
2022/04/27 08:08:53;;;;;;;;;45.25;35.50;;;;;14.05;46.33;101891.56;5019538;28;45292;-70
2022/04/27 08:11:18;;;;;;;;;37.75;33.00;;;;;14.06;46.64;101880.16;5017593;28;45406;-68
2022/04/27 08:13:44;;;;;;;;;52.25;38.75;;;;;14.17;46.11;101896.91;5020098;28;45335;-70
2022/04/27 08:16:11;;;;;;;;;42.25;35.75;;;;;13.97;46.47;101875.72;5020316;28;45263;-70
2022/04/27 08:18:38;;;;;;;;;35.75;31.00;;;;;14.16;46.33;101896.00;5019301;28;45374;-69
2022/04/27 08:21:16;;;;;;;;;47.25;35.00;;;;;14.22;46.30;101884.66;5019519;28;45838;-68
2022/04/27 08:23:44;;;;;;;;;37.50;34.00;;;;;14.31;46.77;101894.38;5019528;28;45302;-69
2022/04/27 08:26:11;;;;;;;;;36.75;29.00;;;;;14.48;46.29;101899.72;5019355;28;45660;-71
2022/04/27 08:28:38;;;;;;;;;38.50;34.50;;;;;14.54;46.08;101903.25;5018920;28;45509;-70
2022/04/27 08:31:04;;;;;;;;;39.25;31.25;;;;;14.51;46.18;101886.53;5019297;28;45938;-69
2022/04/27 08:33:31;;;;;;;;;43.25;34.25;;;;;14.62;45.79;101891.00;5019523;28;45535;-69
2022/04/27 08:36:00;;;;;;;;;49.75;40.25;;;;;14.60;45.36;101886.59;5019316;28;46976;-69
2022/04/27 08:38:30;;;;;;;;;49.25;37.25;;;;;14.63;46.33;101898.03;5019156;28;45386;-69
2022/04/27 08:40:56;;;;;;;;;47.25;36.25;;;;;14.72;45.89;101905.09;5019920;28;45494;-70
2022/04/27 08:43:23;;;;;;;;;43.50;38.00;;;;;14.73;46.16;101905.97;5019658;28;45393;-68
2022/04/27 08:45:49;;;;;;;;;40.00;33.25;;;;;14.79;45.84;101896.34;5020955;28;45314;-69
2022/04/27 08:48:17;;;;;;;;;37.75;33.25;;;;;14.91;45.68;101907.81;5019905;28;45353;-70
2022/04/27 08:50:46;;;;;;;;;33.00;28.50;;;;;15.03;45.69;101898.16;5020369;28;45454;-72
2022/04/27 08:53:12;;;;;;;;;45.75;33.50;;;;;15.08;45.70;101892.88;5021498;28;45184;-70
2022/04/27 08:55:40;;;;;;;;;33.50;30.25;;;;;15.20;45.75;101895.53;5019717;28;46999;-69
2022/04/27 08:58:10;;;;;;;;;45.00;38.75;;;;;15.31;45.23;101908.78;5020100;28;45156;-70
2022/04/27 09:00:36;;;;;;;;;41.50;35.00;;;;;15.27;45.13;101902.59;5018447;28;45805;-69
2022/04/27 09:03:30;;;;;;;;;28.00;24.75;;;;;15.36;45.37;101906.13;5017365;28;45315;-70
2022/04/27 09:06:04;;;;;;;;;30.00;26.00;;;;;15.49;45.14;101897.31;5018591;28;45922;-69
2022/04/27 09:08:55;;;;;;;;;40.25;34.75;;;;;15.08;44.54;101811.09;5016674;28;45549;-68
2022/04/27 09:11:29;;;;;;;;;44.25;35.25;;;;;15.62;44.80;101901.72;5018610;28;45250;-70
2022/04/27 09:14:01;;;;;;;;;41.25;29.00;;;;;15.77;44.43;101895.59;5018791;28;45603;-71
2022/04/27 09:22:26;;;;;;;;;41.75;32.75;;;;;15.92;44.41;101896.44;5019291;28;45401;-69
2022/04/27 09:24:58;;;;;;;;;36.25;32.50;;;;;15.99;44.28;101893.81;5018355;28;45805;-69
2022/04/27 09:27:25;;;;;;;;;33.75;27.50;;;;;15.95;44.46;101864.75;5017787;28;45817;-69
2022/04/27 09:30:01;;;;;;;;;35.75;27.00;;;;;16.26;44.17;101905.19;5018181;28;45262;-71
2022/04/27 09:32:28;;;;;;;;;35.50;30.00;;;;;16.35;44.45;101891.94;5017935;28;45485;-70
2022/04/27 09:34:55;;;;;;;;;29.75;28.00;;;;;16.50;44.27;101898.94;5018227;28;45489;-70
2022/04/27 09:37:24;;;;;;;;;43.50;33.50;;;;;16.62;43.85;101903.28;5018334;28;45539;-69
2022/04/27 09:40:08;;;;;;;;;38.25;32.50;;;;;16.59;43.43;101883.03;5018484;28;45435;-69
2022/04/27 09:42:36;;;;;;;;;39.75;34.75;;;;;16.71;43.39;101893.56;5016538;28;45312;-69
2022/04/27 09:45:25;;;;;;;;;37.75;32.50;;;;;16.71;43.45;101890.03;5016756;28;45536;-69
2022/04/27 09:48:04;;;;;;;;;33.75;29.25;;;;;16.70;43.18;101865.34;5017876;28;45494;-69
2022/04/27 09:50:50;;;;;;;;;41.50;36.50;;;;;16.82;43.05;101887.34;5017350;28;45495;-69
2022/04/27 09:53:19;;;;;;;;;40.25;33.25;;;;;16.69;43.61;101890.03;5017470;28;45424;-70
2022/04/27 09:55:51;;;;;;;;;36.25;29.50;;;;;16.74;44.24;101895.31;5018380;28;45438;-71
2022/04/27 09:58:21;;;;;;;;;29.75;26.50;;;;;16.91;44.64;101882.00;5017940;28;46166;-70
2022/04/27 10:00:50;;;;;;;;;31.75;28.00;;;;;17.11;43.54;101888.06;5017588;28;45400;-70
2022/04/27 10:03:20;;;;;;;;;38.75;33.75;;;;;17.14;44.07;101871.28;5017571;28;45500;-69
2022/04/27 10:05:47;;;;;;;;;44.25;36.50;;;;;17.23;43.31;101865.03;5017838;28;45445;-69
2022/04/27 10:08:13;;;;;;;;;34.75;31.25;;;;;17.31;43.97;101874.66;5017684;28;45362;-68
2022/04/27 10:10:47;;;;;;;;;32.00;26.75;;;;;17.50;46.00;101869.22;5017062;28;45331;-71
2022/04/27 10:13:15;;;;;;;;;25.00;21.50;;;;;17.74;44.11;101868.13;5016431;28;45450;-72
2022/04/27 10:15:46;;;;;;;;;45.25;32.75;;;;;17.73;43.27;101847.81;5017541;28;45483;-71
2022/04/27 10:18:16;;;;;;;;;33.75;28.75;;;;;17.88;43.24;101850.34;5017138;28;46282;-71
2022/04/27 10:20:42;;;;;;;;;40.25;33.75;;;;;18.09;41.73;101864.25;5017203;28;45457;-70
2022/04/27 10:23:24;;;;;;;;;43.50;35.25;;;;;17.91;41.66;101852.06;5017404;28;45448;-69
2022/04/27 10:26:08;;;;;;;;;46.25;37.75;;;;;17.72;42.45;101852.22;5017479;28;45524;-70
2022/04/27 10:28:37;;;;;;;;;34.00;32.25;;;;;17.77;42.90;101847.78;5017334;28;46279;-69
2022/04/27 10:31:08;;;;;;;;;45.75;37.75;;;;;17.70;42.09;101809.00;5017455;28;45367;-72
2022/04/27 10:33:53;;;;;;;;;33.75;31.75;;;;;17.92;42.09;101845.91;5017462;28;45318;-72
2022/04/27 10:36:31;;;;;;;;;31.75;30.00;;;;;17.95;43.16;101837.91;5016946;28;45466;-72
2022/04/27 10:39:11;;;;;;;;;39.00;31.50;;;;;18.11;41.65;101833.31;5017097;28;45506;-72
2022/04/27 10:41:53;;;;;;;;;32.00;28.50;;;;;18.17;41.74;101827.91;5016839;28;45842;-71
2022/04/27 10:44:18;;;;;;;;;33.25;28.50;;;;;18.29;40.66;101834.84;5016980;28;45351;-68
2022/04/27 10:46:44;;;;;;;;;27.00;25.25;;;;;18.15;40.19;101819.09;5016859;28;45356;-70
2022/04/27 10:49:29;;;;;;;;;31.25;28.00;;;;;18.18;41.66;101837.66;5015081;28;47697;-70
2022/04/27 10:52:01;;;;;;;;;36.00;32.00;;;;;18.16;40.26;101835.00;5015597;28;45292;-72
2022/04/27 10:54:33;;;;;;;;;35.50;30.00;;;;;18.18;41.47;101829.69;5016883;28;45318;-68
2022/04/27 10:57:17;;;;;;;;;27.50;25.50;;;;;18.32;41.22;101834.78;5016745;28;45401;-70
2022/04/27 10:59:44;;;;;;;;;24.00;22.00;;;;;18.54;40.59;101811.53;5016790;28;45886;-70
2022/04/27 11:02:34;;;;;;;;;26.00;23.25;;;;;18.68;40.29;101820.19;5016596;28;45398;-69
2022/04/27 11:05:05;;;;;;;;;36.75;31.25;;;;;18.79;39.34;101820.94;5016338;28;45443;-69
2022/04/27 11:07:48;;;;;;;;;36.50;31.00;;;;;18.74;38.64;101820.06;5016747;28;45477;-70
2022/04/27 11:10:16;;;;;;;;;56.75;44.50;;;;;18.57;39.19;101812.34;5016431;28;46506;-68
2022/04/27 11:12:49;;;;;;;;;57.25;45.25;;;;;18.38;40.19;101789.66;5016671;28;45544;-75
2022/04/27 11:15:24;;;;;;;;;562.60;455.60;;;;;18.49;39.63;101814.25;5014857;28;45459;-71
2022/04/27 11:17:57;;;;;;;;;110.33;97.33;;;;;18.39;39.60;101809.97;5016937;28;45210;-72
2022/04/27 11:20:37;;;;;;;;;42.25;33.50;;;;;18.24;38.35;101776.56;5016164;28;46128;-69
2022/04/27 11:23:19;;;;;;;;;33.00;31.50;;;;;18.52;39.00;101811.56;5015307;28;45542;-71
2022/04/27 11:25:50;;;;;;;;;26.75;24.00;;;;;18.70;38.44;101801.56;5020004;28;45381;-70
2022/04/27 11:28:20;;;;;;;;;31.75;28.50;;;;;18.80;38.15;101804.09;5020611;28;45284;-72
2022/04/27 11:30:47;;;;;;;;;25.67;22.67;;;;;18.70;37.57;101775.03;5018007;28;46894;-71
2022/04/27 11:33:16;;;;;;;;;35.25;32.25;;;;;18.83;38.41;101800.53;5019503;28;45526;-70
2022/04/27 11:35:50;;;;;;;;;43.50;33.25;;;;;18.93;38.32;101804.78;5019637;28;45312;-69
2022/04/27 11:38:19;;;;;;;;;30.25;29.25;;;;;18.61;36.63;101761.00;5019924;28;45366;-70